Time;durP1;ratioP1;P1;durP2;ratioP2;P2;SDS_P1;SDS_P2;PMS_P1;PMS_P2;Temp;Humidity;BMP_temperature;BMP_pressure;BME280_temperature;BME280_humidity;BME280_pressure;Samples;Min_cycle;Max_cycle;Signal;HPM_P1;HPM_P2
2023/07/25 00:02:39;;;;;;;;;;;;;;;;;;4961425;28;19937;-75
2023/07/25 00:05:26;;;;;;;;;;;;;;;;;;4956218;28;19926;-76
2023/07/25 00:08:12;;;;;;;;;;;;;;;;;;4939378;28;19927;-76
2023/07/25 00:10:59;;;;;;;;;;;;;;;;;;4939711;28;20386;-75
2023/07/25 00:13:45;;;;;;;;;;;;;;;;;;4961083;28;19918;-76
2023/07/25 00:16:32;;;;;;;;;;;;;;;;;;4966758;28;19949;-76
2023/07/25 00:19:18;;;;;;;;;;;;;;;;;;4964200;28;20460;-76
2023/07/25 00:22:05;;;;;;;;;;;;;;;;;;4947212;28;19930;-76
2023/07/25 00:24:51;;;;;;;;;;;;;;;;;;4940535;28;20422;-76
2023/07/25 00:27:38;;;;;;;;;;;;;;;;;;4936129;28;19930;-75
2023/07/25 00:30:24;;;;;;;;;;;;;;;;;;4947499;28;20448;-76
2023/07/25 00:33:11;;;;;;;;;;;;;;;;;;4965173;28;20630;-74
2023/07/25 00:35:57;;;;;;;;;;;;;;;;;;4969705;28;19929;-83
2023/07/25 00:38:44;;;;;;;;;;;;;;;;;;4975565;28;20375;-76
2023/07/25 00:41:30;;;;;;;;;;;;;;;;;;4964986;28;19961;-75
2023/07/25 00:44:17;;;;;;;;;;;;;;;;;;4953540;28;19926;-74
2023/07/25 00:47:03;;;;;;;;;;;;;;;;;;4963948;28;19936;-72
2023/07/25 00:49:50;;;;;;;;;;;;;;;;;;4964158;28;19922;-72
2023/07/25 00:52:36;;;;;;;;;;;;;;;;;;4963534;28;20301;-74
2023/07/25 00:55:23;;;;;;;;;;;;;;;;;;4961722;28;19922;-75
2023/07/25 00:58:09;;;;;;;;;;;;;;;;;;4958203;28;19930;-76
2023/07/25 01:00:56;;;;;;;;;;;;;;;;;;4962432;28;19936;-73
2023/07/25 01:03:42;;;;;;;;;;;;;;;;;;4965510;28;19919;-76
2023/07/25 01:06:29;;;;;;;;;;;;;;;;;;4958127;28;19930;-75
2023/07/25 01:09:15;;;;;;;;;;;;;;;;;;4950771;28;19925;-74
2023/07/25 01:12:02;;;;;;;;;;;;;;;;;;4969216;28;19925;-74
2023/07/25 01:14:49;;;;;;;;;;;;;;;;;;4963931;28;19937;-73
2023/07/25 01:17:35;;;;;;;;;;;;;;;;;;4964222;28;20396;-74
2023/07/25 01:20:22;;;;;;;;;;;;;;;;;;4967217;28;19922;-75
2023/07/25 01:23:08;;;;;;;;;;;;;;;;;;4947339;28;19925;-75
2023/07/25 01:25:55;;;;;;;;;;;;;;;;;;4966851;28;20326;-75
2023/07/25 01:28:41;;;;;;;;;;;;;;;;;;4971559;28;19937;-75
2023/07/25 01:31:27;;;;;;;;;;;;;;;;;;4952104;28;19933;-75
2023/07/25 01:34:14;;;;;;;;;;;;;;;;;;4957887;28;20567;-75
2023/07/25 01:37:00;;;;;;;;;;;;;;;;;;4962527;28;19918;-74
2023/07/25 01:39:47;;;;;;;;;;;;;;;;;;4961764;28;20006;-75
2023/07/25 01:42:33;;;;;;;;;;;;;;;;;;4952880;28;19941;-74
2023/07/25 01:45:20;;;;;;;;;;;;;;;;;;4950874;28;19954;-74
2023/07/25 01:48:06;;;;;;;;;;;;;;;;;;4947643;28;20309;-79
2023/07/25 01:50:53;;;;;;;;;;;;;;;;;;4965376;28;19918;-75
2023/07/25 01:53:39;;;;;;;;;;;;;;;;;;4961809;28;19922;-74
2023/07/25 01:56:26;;;;;;;;;;;;;;;;;;4960399;28;19921;-75
2023/07/25 01:59:12;;;;;;;;;;;;;;;;;;4948420;28;19933;-76
2023/07/25 02:01:59;;;;;;;;;;;;;;;;;;4961471;28;21178;-76
2023/07/25 02:04:46;;;;;;;;;;;;;;;;;;4959408;28;19919;-76
2023/07/25 02:07:33;;;;;;;;;;;;;;;;;;4949162;28;19926;-76
2023/07/25 02:10:19;;;;;;;;;;;;;;;;;;4954278;28;19926;-75
2023/07/25 02:13:06;;;;;;;;;;;;;;;;;;4955888;28;20355;-75
2023/07/25 02:15:52;;;;;;;;;;;;;;;;;;4963466;28;19932;-76
2023/07/25 02:18:39;;;;;;;;;;;;;;;;;;4950250;28;19922;-76
2023/07/25 02:21:25;;;;;;;;;;;;;;;;;;4957173;28;20261;-75
2023/07/25 02:24:12;;;;;;;;;;;;;;;;;;4955787;28;20366;-76
2023/07/25 02:26:58;;;;;;;;;;;;;;;;;;4956706;28;19926;-76
2023/07/25 02:29:45;;;;;;;;;;;;;;;;;;4948436;28;19918;-76
2023/07/25 02:32:31;;;;;;;;;;;;;;;;;;4961521;28;19972;-75
2023/07/25 02:35:18;;;;;;;;;;;;;;;;;;4957280;28;19934;-74
2023/07/25 02:38:04;;;;;;;;;;;;;;;;;;4962219;28;19922;-74
2023/07/25 02:40:50;;;;;;;;;;;;;;;;;;4961878;28;19922;-76
2023/07/25 02:43:37;;;;;;;;;;;;;;;;;;4964500;28;20310;-76
2023/07/25 02:46:23;;;;;;;;;;;;;;;;;;4960730;28;19931;-74
2023/07/25 02:49:10;;;;;;;;;;;;;;;;;;4960004;28;20306;-75
2023/07/25 02:51:56;;;;;;;;;;;;;;;;;;4955366;28;19929;-75
2023/07/25 02:54:43;;;;;;;;;;;;;;;;;;4958143;28;19921;-74
2023/07/25 02:57:29;;;;;;;;;;;;;;;;;;4950889;28;19933;-74
2023/07/25 03:00:16;;;;;;;;;;;;;;;;;;4945009;28;20654;-74
2023/07/25 03:03:02;;;;;;;;;;;;;;;;;;4959752;28;19914;-74
2023/07/25 03:05:49;;;;;;;;;;;;;;;;;;4952123;28;20396;-74
2023/07/25 03:08:35;;;;;;;;;;;;;;;;;;4953770;28;19934;-76
2023/07/25 03:11:22;;;;;;;;;;;;;;;;;;4965241;28;19922;-75
2023/07/25 03:14:08;;;;;;;;;;;;;;;;;;4952986;28;19926;-74
2023/07/25 03:16:55;;;;;;;;;;;;;;;;;;4956277;28;19937;-76
2023/07/25 03:19:41;;;;;;;;;;;;;;;;;;4961052;28;19922;-75
2023/07/25 03:22:28;;;;;;;;;;;;;;;;;;4956747;28;19922;-74
2023/07/25 03:25:14;;;;;;;;;;;;;;;;;;4956754;28;19997;-74
2023/07/25 03:28:01;;;;;;;;;;;;;;;;;;4956817;28;20329;-74
2023/07/25 03:30:47;;;;;;;;;;;;;;;;;;4962365;28;19929;-74
2023/07/25 03:33:34;;;;;;;;;;;;;;;;;;4954893;28;19925;-75
2023/07/25 03:36:20;;;;;;;;;;;;;;;;;;4962833;28;19929;-76
2023/07/25 03:39:07;;;;;;;;;;;;;;;;;;4962750;28;20665;-75
2023/07/25 03:41:53;;;;;;;;;;;;;;;;;;4961871;28;19929;-75
2023/07/25 03:44:40;;;;;;;;;;;;;;;;;;4954062;28;19932;-75
2023/07/25 03:47:26;;;;;;;;;;;;;;;;;;4956524;28;20441;-73
2023/07/25 03:50:13;;;;;;;;;;;;;;;;;;4959752;28;19926;-74
2023/07/25 03:52:59;;;;;;;;;;;;;;;;;;4970022;28;19937;-74
2023/07/25 03:55:46;;;;;;;;;;;;;;;;;;4959480;28;20282;-75
2023/07/25 03:58:32;;;;;;;;;;;;;;;;;;4967969;28;19937;-75
2023/07/25 04:01:18;;;;;;;;;;;;;;;;;;4976165;28;19918;-75
2023/07/25 04:04:05;;;;;;;;;;;;;;;;;;4973729;28;19918;-74
2023/07/25 04:06:51;;;;;;;;;;;;;;;;;;4969227;28;19937;-74
2023/07/25 04:09:38;;;;;;;;;;;;;;;;;;4969370;28;20206;-75
2023/07/25 04:12:24;;;;;;;;;;;;;;;;;;4977487;28;20391;-75
2023/07/25 04:15:11;;;;;;;;;;;;;;;;;;4963352;28;19922;-75
2023/07/25 04:17:57;;;;;;;;;;;;;;;;;;4953663;28;19922;-77
2023/07/25 04:20:44;;;;;;;;;;;;;;;;;;4967609;28;19922;-75
2023/07/25 04:23:30;;;;;;;;;;;;;;;;;;4964976;28;19921;-75
2023/07/25 04:26:17;;;;;;;;;;;;;;;;;;4968169;28;19925;-74
2023/07/25 04:29:03;;;;;;;;;;;;;;;;;;4971211;28;19933;-76
2023/07/25 04:31:50;;;;;;;;;;;;;;;;;;4968979;28;19922;-76
2023/07/25 04:34:36;;;;;;;;;;;;;;;;;;4962622;28;20737;-76
2023/07/25 04:37:23;;;;;;;;;;;;;;;;;;4973468;28;19918;-75
2023/07/25 04:40:09;;;;;;;;;;;;;;;;;;4950207;28;19918;-75
2023/07/25 04:42:56;;;;;;;;;;;;;;;;;;4969000;28;20385;-75
2023/07/25 04:45:42;;;;;;;;;;;;;;;;;;4967070;28;20285;-74
2023/07/25 04:48:29;;;;;;;;;;;;;;;;;;4969172;28;20393;-75
2023/07/25 04:51:15;;;;;;;;;;;;;;;;;;4972529;28;20306;-75
2023/07/25 04:54:02;;;;;;;;;;;;;;;;;;4968780;28;19922;-74
2023/07/25 04:56:48;;;;;;;;;;;;;;;;;;4960574;28;20506;-74
2023/07/25 04:59:35;;;;;;;;;;;;;;;;;;4940321;28;19922;-77
2023/07/25 05:02:21;;;;;;;;;;;;;;;;;;4970407;28;19925;-77
2023/07/25 05:05:08;;;;;;;;;;;;;;;;;;4963987;28;20460;-77
2023/07/25 05:07:54;;;;;;;;;;;;;;;;;;4971090;28;19934;-76
2023/07/25 05:10:41;;;;;;;;;;;;;;;;;;4958289;28;19932;-76
2023/07/25 05:13:27;;;;;;;;;;;;;;;;;;4981475;28;19921;-77
2023/07/25 05:16:14;;;;;;;;;;;;;;;;;;4967467;28;19928;-77
2023/07/25 05:19:00;;;;;;;;;;;;;;;;;;4968384;28;19930;-76
2023/07/25 05:21:47;;;;;;;;;;;;;;;;;;4962903;28;19922;-75
2023/07/25 05:24:33;;;;;;;;;;;;;;;;;;4972391;28;19922;-77
2023/07/25 05:27:20;;;;;;;;;;;;;;;;;;4965080;28;19932;-76
2023/07/25 05:30:06;;;;;;;;;;;;;;;;;;4957206;28;19918;-76
2023/07/25 05:32:53;;;;;;;;;;;;;;;;;;4955146;28;19922;-76
2023/07/25 05:35:39;;;;;;;;;;;;;;;;;;4965542;28;19925;-77
2023/07/25 05:38:26;;;;;;;;;;;;;;;;;;4973292;28;19918;-76
2023/07/25 05:41:12;;;;;;;;;;;;;;;;;;4955899;28;19918;-76
2023/07/25 05:43:59;;;;;;;;;;;;;;;;;;4959615;28;20381;-75
2023/07/25 05:46:45;;;;;;;;;;;;;;;;;;4964723;28;19928;-76
2023/07/25 05:49:32;;;;;;;;;;;;;;;;;;4966852;28;19956;-76
2023/07/25 05:52:18;;;;;;;;;;;;;;;;;;4971519;28;20370;-76
2023/07/25 05:55:05;;;;;;;;;;;;;;;;;;4963966;28;20381;-75
2023/07/25 05:57:51;;;;;;;;;;;;;;;;;;4967310;28;19934;-75
2023/07/25 06:00:38;;;;;;;;;;;;;;;;;;4968883;28;19933;-74
2023/07/25 06:03:24;;;;;;;;;;;;;;;;;;4966088;28;19922;-75
2023/07/25 06:06:11;;;;;;;;;;;;;;;;;;4959298;28;19923;-75
2023/07/25 06:08:57;;;;;;;;;;;;;;;;;;4960792;28;20349;-75
2023/07/25 06:11:44;;;;;;;;;;;;;;;;;;4954929;28;20370;-75
2023/07/25 06:14:30;;;;;;;;;;;;;;;;;;4966088;28;19922;-75
2023/07/25 06:17:17;;;;;;;;;;;;;;;;;;4955393;28;19928;-76
2023/07/25 06:20:03;;;;;;;;;;;;;;;;;;4962056;28;19933;-76
2023/07/25 06:22:50;;;;;;;;;;;;;;;;;;4947211;28;20631;-76
2023/07/25 06:25:36;;;;;;;;;;;;;;;;;;4963276;28;19922;-75
2023/07/25 06:28:23;;;;;;;;;;;;;;;;;;4969873;28;19952;-72
2023/07/25 06:31:09;;;;;;;;;;;;;;;;;;4964378;28;20323;-71
2023/07/25 06:33:56;;;;;;;;;;;;;;;;;;4962017;28;19934;-71
2023/07/25 06:36:42;;;;;;;;;;;;;;;;;;4968314;28;19929;-71
2023/07/25 06:39:29;;;;;;;;;;;;;;;;;;4966113;28;19926;-71
2023/07/25 06:42:15;;;;;;;;;;;;;;;;;;4971117;28;19929;-72
2023/07/25 06:45:02;;;;;;;;;;;;;;;;;;4957217;28;19932;-73
2023/07/25 06:47:49;;;;;;;;;;;;;;;;;;4961926;28;20043;-71
2023/07/25 06:50:35;;;;;;;;;;;;;;;;;;4959983;28;19919;-72
2023/07/25 06:53:22;;;;;;;;;;;;;;;;;;4969066;28;19942;-72
2023/07/25 06:56:08;;;;;;;;;;;;;;;;;;4962477;28;19926;-71
2023/07/25 06:58:55;;;;;;;;;;;;;;;;;;4962539;28;19966;-72
2023/07/25 07:01:41;;;;;;;;;;;;;;;;;;4971664;28;20407;-72
2023/07/25 07:04:28;;;;;;;;;;;;;;;;;;4969569;28;19932;-71
2023/07/25 07:07:14;;;;;;;;;;;;;;;;;;4968527;28;19929;-72
2023/07/25 07:10:01;;;;;;;;;;;;;;;;;;4956708;28;19925;-72
2023/07/25 07:12:47;;;;;;;;;;;;;;;;;;4971448;28;19925;-71
2023/07/25 07:15:34;;;;;;;;;;;;;;;;;;4950802;28;20268;-71
2023/07/25 07:18:20;;;;;;;;;;;;;;;;;;4957827;28;19933;-71
2023/07/25 07:21:07;;;;;;;;;;;;;;;;;;4960516;28;19923;-71
2023/07/25 07:23:54;;;;;;;;;;;;;;;;;;4963824;28;19932;-71
2023/07/25 07:26:40;;;;;;;;;;;;;;;;;;4964907;28;19930;-71
2023/07/25 07:29:27;;;;;;;;;;;;;;;;;;4977306;28;19922;-71
2023/07/25 07:32:13;;;;;;;;;;;;;;;;;;4968350;28;20279;-72
2023/07/25 07:35:00;;;;;;;;;;;;;;;;;;4960680;28;20832;-71
2023/07/25 07:37:46;;;;;;;;;;;;;;;;;;4960021;28;19926;-71
2023/07/25 07:40:35;;;;;;;;;;;;;;;;;;4950636;28;19933;-74
2023/07/25 07:43:21;;;;;;;;;;;;;;;;;;4962939;28;20786;-71
2023/07/25 07:46:08;;;;;;;;;;;;;;;;;;4970800;28;19929;-70
2023/07/25 07:48:54;;;;;;;;;;;;;;;;;;4975879;28;19941;-70
2023/07/25 07:51:40;;;;;;;;;;;;;;;;;;4972377;28;20378;-72
2023/07/25 07:54:27;;;;;;;;;;;;;;;;;;4969886;28;19926;-71
2023/07/25 07:57:16;;;;;;;;;;;;;;;;;;4958985;28;19930;-72
2023/07/25 08:00:04;;;;;;;;;;;;;;;;;;4971736;28;19922;-71
2023/07/25 08:02:51;;;;;;;;;;;;;;;;;;4968950;28;19945;-70
2023/07/25 08:05:38;;;;;;;;;;;;;;;;;;4967773;28;20685;-73
2023/07/25 08:08:24;;;;;;;;;;;;;;;;;;4967991;28;19926;-71
2023/07/25 08:11:11;;;;;;;;;;;;;;;;;;4970693;28;19922;-71
2023/07/25 08:13:57;;;;;;;;;;;;;;;;;;4966129;28;20298;-72
2023/07/25 08:16:44;;;;;;;;;;;;;;;;;;4970686;28;19973;-72
2023/07/25 08:19:31;;;;;;;;;;;;;;;;;;4970432;28;19922;-71
2023/07/25 08:22:17;;;;;;;;;;;;;;;;;;4970838;28;19960;-71
2023/07/25 08:25:04;;;;;;;;;;;;;;;;;;4970116;28;19921;-71
2023/07/25 08:27:50;;;;;;;;;;;;;;;;;;4970786;28;21288;-71
2023/07/25 08:30:37;;;;;;;;;;;;;;;;;;4965069;28;20537;-73
2023/07/25 08:33:23;;;;;;;;;;;;;;;;;;4967956;28;19928;-72
2023/07/25 08:36:10;;;;;;;;;;;;;;;;;;4967012;28;19929;-72
2023/07/25 08:38:56;;;;;;;;;;;;;;;;;;4963232;28;20429;-72
2023/07/25 08:41:43;;;;;;;;;;;;;;;;;;4966268;28;20610;-72
2023/07/25 08:44:29;;;;;;;;;;;;;;;;;;4967436;28;19926;-73
2023/07/25 08:47:17;;;;;;;;;;;;;;;;;;4961198;28;19926;-72
2023/07/25 08:50:03;;;;;;;;;;;;;;;;;;4966483;28;20390;-71
2023/07/25 08:52:50;;;;;;;;;;;;;;;;;;4963762;28;19922;-72
2023/07/25 08:55:36;;;;;;;;;;;;;;;;;;4962621;28;19918;-71
2023/07/25 08:58:23;;;;;;;;;;;;;;;;;;4945207;28;19930;-71
2023/07/25 09:01:09;;;;;;;;;;;;;;;;;;4968563;28;19926;-72
2023/07/25 09:03:56;;;;;;;;;;;;;;;;;;4969386;28;20384;-72
2023/07/25 09:06:42;;;;;;;;;;;;;;;;;;4970118;28;19961;-71
2023/07/25 09:09:28;;;;;;;;;;;;;;;;;;4969691;28;19933;-71
2023/07/25 09:12:15;;;;;;;;;;;;;;;;;;4950949;28;19928;-72
2023/07/25 09:15:01;;;;;;;;;;;;;;;;;;4966111;28;19922;-71
2023/07/25 09:17:48;;;;;;;;;;;;;;;;;;4965976;28;19926;-71
2023/07/25 09:20:34;;;;;;;;;;;;;;;;;;4970035;28;20379;-71
2023/07/25 09:23:21;;;;;;;;;;;;;;;;;;4970508;28;19918;-72
2023/07/25 09:26:08;;;;;;;;;;;;;;;;;;4968941;28;19922;-72
2023/07/25 09:28:55;;;;;;;;;;;;;;;;;;4967234;28;19937;-71
2023/07/25 09:31:41;;;;;;;;;;;;;;;;;;4951931;28;19942;-71
2023/07/25 09:34:28;;;;;;;;;;;;;;;;;;4965741;28;19925;-71
2023/07/25 09:37:14;;;;;;;;;;;;;;;;;;4963934;28;20551;-72
2023/07/25 09:40:01;;;;;;;;;;;;;;;;;;4958993;28;19929;-71
2023/07/25 09:42:51;;;;;;;;;;;;;;;;;;4954600;28;19922;-72
2023/07/25 09:45:37;;;;;;;;;;;;;;;;;;4957381;28;19923;-71
2023/07/25 09:48:23;;;;;;;;;;;;;;;;;;4966475;28;19940;-71
2023/07/25 09:51:10;;;;;;;;;;;;;;;;;;4969062;28;19924;-71
2023/07/25 09:53:56;;;;;;;;;;;;;;;;;;4970662;28;19922;-72
2023/07/25 09:56:43;;;;;;;;;;;;;;;;;;4965692;28;19933;-72
2023/07/25 09:59:29;;;;;;;;;;;;;;;;;;4966875;28;19930;-72
2023/07/25 10:02:16;;;;;;;;;;;;;;;;;;4952124;28;20436;-72
2023/07/25 10:05:03;;;;;;;;;;;;;;;;;;4966524;28;19929;-72
2023/07/25 10:07:49;;;;;;;;;;;;;;;;;;4975607;28;19934;-72
2023/07/25 10:10:36;;;;;;;;;;;;;;;;;;4969947;28;19922;-72
2023/07/25 10:13:22;;;;;;;;;;;;;;;;;;4965105;28;20432;-72
2023/07/25 10:16:10;;;;;;;;;;;;;;;;;;4953068;28;19922;-72
2023/07/25 10:18:57;;;;;;;;;;;;;;;;;;4949645;28;20020;-72
2023/07/25 10:21:43;;;;;;;;;;;;;;;;;;4941853;28;19923;-72
2023/07/25 10:24:30;;;;;;;;;;;;;;;;;;4944567;28;19927;-72
2023/07/25 10:27:16;;;;;;;;;;;;;;;;;;4948132;28;19933;-72
2023/07/25 10:30:03;;;;;;;;;;;;;;;;;;4969710;28;19922;-72
2023/07/25 10:32:50;;;;;;;;;;;;;;;;;;4955983;28;19927;-72
2023/07/25 10:35:37;;;;;;;;;;;;;;;;;;4935167;28;19922;-73
2023/07/25 10:38:23;;;;;;;;;;;;;;;;;;4951207;28;19918;-73
2023/07/25 10:41:10;;;;;;;;;;;;;;;;;;4963365;28;19929;-73
2023/07/25 10:43:56;;;;;;;;;;;;;;;;;;4954677;28;19950;-71
2023/07/25 10:46:43;;;;;;;;;;;;;;;;;;4940208;28;20570;-72
2023/07/25 10:49:29;;;;;;;;;;;;;;;;;;4943462;28;19927;-73
2023/07/25 10:52:16;;;;;;;;;;;;;;;;;;4943369;28;19926;-71
2023/07/25 10:55:02;;;;;;;;;;;;;;;;;;4947992;28;19922;-72
2023/07/25 10:57:48;;;;;;;;;;;;;;;;;;4960412;28;19937;-71
2023/07/25 11:00:35;;;;;;;;;;;;;;;;;;4966499;28;19922;-73
2023/07/25 11:03:22;;;;;;;;;;;;;;;;;;4964961;28;19945;-72
2023/07/25 11:06:08;;;;;;;;;;;;;;;;;;4961995;28;19932;-73
2023/07/25 11:08:55;;;;;;;;;;;;;;;;;;4952192;28;19934;-72
2023/07/25 11:11:41;;;;;;;;;;;;;;;;;;4953312;28;19962;-72
2023/07/25 11:14:27;;;;;;;;;;;;;;;;;;4941802;28;19945;-72
2023/07/25 11:17:14;;;;;;;;;;;;;;;;;;4959503;28;19918;-72
2023/07/25 11:20:01;;;;;;;;;;;;;;;;;;4948962;28;19929;-72
2023/07/25 11:22:47;;;;;;;;;;;;;;;;;;4956780;28;19930;-72
2023/07/25 11:25:34;;;;;;;;;;;;;;;;;;4965022;28;20298;-73
2023/07/25 11:28:20;;;;;;;;;;;;;;;;;;4967443;28;19930;-71
2023/07/25 11:31:07;;;;;;;;;;;;;;;;;;4959219;28;19929;-72
2023/07/25 11:33:53;;;;;;;;;;;;;;;;;;4965750;28;19925;-73
2023/07/25 11:36:40;;;;;;;;;;;;;;;;;;4960424;28;19922;-72
2023/07/25 11:39:27;;;;;;;;;;;;;;;;;;4965738;28;19922;-71
2023/07/25 11:42:13;;;;;;;;;;;;;;;;;;4957797;28;19927;-73
2023/07/25 11:44:59;;;;;;;;;;;;;;;;;;4953648;28;19933;-73
2023/07/25 11:47:46;;;;;;;;;;;;;;;;;;4950493;28;19933;-73
2023/07/25 11:50:32;;;;;;;;;;;;;;;;;;4968207;28;19918;-73
2023/07/25 11:53:19;;;;;;;;;;;;;;;;;;4947853;28;19922;-73
2023/07/25 11:56:05;;;;;;;;;;;;;;;;;;4962355;28;19928;-73
2023/07/25 11:58:52;;;;;;;;;;;;;;;;;;4970269;28;19930;-73
2023/07/25 12:01:39;;;;;;;;;;;;;;;;;;4962492;28;19926;-72
2023/07/25 12:04:25;;;;;;;;;;;;;;;;;;4973795;28;19928;-72
2023/07/25 12:07:12;;;;;;;;;;;;;;;;;;4960483;28;19932;-72
2023/07/25 12:09:58;;;;;;;;;;;;;;;;;;4968101;28;20712;-72
2023/07/25 12:12:45;;;;;;;;;;;;;;;;;;4966668;28;19922;-72
2023/07/25 12:15:31;;;;;;;;;;;;;;;;;;4972295;28;20470;-72
2023/07/25 12:18:18;;;;;;;;;;;;;;;;;;4963797;28;19922;-72
2023/07/25 12:21:04;;;;;;;;;;;;;;;;;;4954140;28;19918;-72
2023/07/25 12:23:51;;;;;;;;;;;;;;;;;;4971997;28;19918;-73
2023/07/25 12:26:37;;;;;;;;;;;;;;;;;;4963934;28;19932;-73
2023/07/25 12:29:27;;;;;;;;;;;;;;;;;;4965722;28;19930;-72
2023/07/25 12:32:14;;;;;;;;;;;;;;;;;;4965655;28;19922;-71
2023/07/25 12:35:01;;;;;;;;;;;;;;;;;;4964385;28;20461;-71
2023/07/25 12:37:47;;;;;;;;;;;;;;;;;;4964393;28;19949;-72
2023/07/25 12:40:34;;;;;;;;;;;;;;;;;;4956592;28;19929;-73
2023/07/25 12:43:23;;;;;;;;;;;;;;;;;;4968357;28;19926;-74
2023/07/25 12:46:09;;;;;;;;;;;;;;;;;;4973362;28;19922;-71
2023/07/25 12:48:56;;;;;;;;;;;;;;;;;;4967714;28;19937;-71
2023/07/25 12:51:42;;;;;;;;;;;;;;;;;;4965834;28;19930;-71
2023/07/25 12:54:29;;;;;;;;;;;;;;;;;;4970691;28;19918;-72
2023/07/25 12:57:15;;;;;;;;;;;;;;;;;;4956095;28;21127;-70
2023/07/25 13:00:02;;;;;;;;;;;;;;;;;;4970398;28;19922;-72
2023/07/25 13:02:48;;;;;;;;;;;;;;;;;;4962354;28;19943;-72
2023/07/25 13:05:35;;;;;;;;;;;;;;;;;;4969584;28;20498;-71
2023/07/25 13:08:21;;;;;;;;;;;;;;;;;;4960009;28;19962;-71
2023/07/25 13:11:08;;;;;;;;;;;;;;;;;;4957462;28;19926;-74
2023/07/25 13:13:54;;;;;;;;;;;;;;;;;;4956273;28;19952;-73
2023/07/25 13:16:41;;;;;;;;;;;;;;;;;;4949497;28;19919;-73
2023/07/25 13:19:27;;;;;;;;;;;;;;;;;;4969031;28;19922;-71
2023/07/25 13:22:14;;;;;;;;;;;;;;;;;;4960148;28;19922;-71
2023/07/25 13:25:01;;;;;;;;;;;;;;;;;;4954867;28;19933;-72
2023/07/25 13:27:47;;;;;;;;;;;;;;;;;;4953247;28;19933;-72
2023/07/25 13:30:34;;;;;;;;;;;;;;;;;;4968087;28;19956;-73
2023/07/25 13:33:20;;;;;;;;;;;;;;;;;;4972042;28;19925;-71
2023/07/25 13:36:07;;;;;;;;;;;;;;;;;;4970825;28;20004;-71
2023/07/25 13:38:53;;;;;;;;;;;;;;;;;;4967061;28;19933;-71
2023/07/25 13:41:40;;;;;;;;;;;;;;;;;;4971778;28;20298;-72
2023/07/25 13:44:26;;;;;;;;;;;;;;;;;;4973102;28;19922;-70
2023/07/25 13:47:13;;;;;;;;;;;;;;;;;;4969093;28;19934;-71
2023/07/25 13:50:02;;;;;;;;;;;;;;;;;;4957752;28;19926;-72
2023/07/25 13:52:51;;;;;;;;;;;;;;;;;;4969752;28;19923;-71
2023/07/25 13:55:38;;;;;;;;;;;;;;;;;;4976183;28;19933;-71
2023/07/25 13:58:24;;;;;;;;;;;;;;;;;;4965051;28;19934;-71
2023/07/25 14:01:10;;;;;;;;;;;;;;;;;;4962873;28;20400;-72
2023/07/25 14:03:57;;;;;;;;;;;;;;;;;;4961032;28;19929;-72
2023/07/25 14:06:44;;;;;;;;;;;;;;;;;;4942769;28;19926;-71
2023/07/25 14:09:30;;;;;;;;;;;;;;;;;;4960162;28;19937;-73
2023/07/25 14:12:17;;;;;;;;;;;;;;;;;;4950921;28;20377;-72
2023/07/25 14:15:03;;;;;;;;;;;;;;;;;;4940524;28;19933;-71
2023/07/25 14:17:50;;;;;;;;;;;;;;;;;;4941685;28;19926;-71
2023/07/25 14:20:38;;;;;;;;;;;;;;;;;;4945345;28;19929;-73
2023/07/25 14:23:24;;;;;;;;;;;;;;;;;;4943386;28;19926;-72
2023/07/25 14:26:11;;;;;;;;;;;;;;;;;;4944589;28;19933;-72
2023/07/25 14:28:57;;;;;;;;;;;;;;;;;;4945974;28;19927;-72
2023/07/25 14:31:44;;;;;;;;;;;;;;;;;;4942240;28;19946;-72
2023/07/25 14:34:30;;;;;;;;;;;;;;;;;;4943148;28;19931;-72
2023/07/25 14:37:17;;;;;;;;;;;;;;;;;;4943742;28;19932;-72
2023/07/25 14:40:06;;;;;;;;;;;;;;;;;;4954543;28;19932;-72
2023/07/25 14:42:52;;;;;;;;;;;;;;;;;;4940837;28;20347;-72
2023/07/25 14:45:39;;;;;;;;;;;;;;;;;;4943955;28;19929;-72
2023/07/25 14:48:25;;;;;;;;;;;;;;;;;;4943619;28;20374;-72
2023/07/25 14:51:12;;;;;;;;;;;;;;;;;;4941415;28;19932;-72
2023/07/25 14:53:58;;;;;;;;;;;;;;;;;;4940350;28;19923;-72
2023/07/25 14:56:45;;;;;;;;;;;;;;;;;;4944752;28;19922;-72
2023/07/25 14:59:32;;;;;;;;;;;;;;;;;;4964188;28;20626;-72
2023/07/25 15:02:18;;;;;;;;;;;;;;;;;;4957206;28;19926;-72
2023/07/25 15:05:05;;;;;;;;;;;;;;;;;;4966422;28;19937;-71
2023/07/25 15:07:52;;;;;;;;;;;;;;;;;;4961408;28;19929;-71
2023/07/25 15:10:38;;;;;;;;;;;;;;;;;;4959556;28;19930;-71
2023/07/25 15:13:25;;;;;;;;;;;;;;;;;;4962900;28;19918;-72
2023/07/25 15:16:12;;;;;;;;;;;;;;;;;;4959448;28;19949;-72
2023/07/25 15:18:58;;;;;;;;;;;;;;;;;;4964345;28;19922;-71
2023/07/25 15:21:44;;;;;;;;;;;;;;;;;;4963702;28;19922;-70
2023/07/25 15:24:31;;;;;;;;;;;;;;;;;;4963331;28;19945;-72
2023/07/25 15:27:18;;;;;;;;;;;;;;;;;;4944262;28;19940;-72
2023/07/25 15:30:04;;;;;;;;;;;;;;;;;;4961140;28;19925;-72
2023/07/25 15:32:51;;;;;;;;;;;;;;;;;;4959392;28;19922;-71
2023/07/25 15:35:37;;;;;;;;;;;;;;;;;;4961312;28;20385;-72
2023/07/25 15:38:24;;;;;;;;;;;;;;;;;;4953427;28;19929;-72
2023/07/25 15:41:10;;;;;;;;;;;;;;;;;;4951919;28;20447;-71
2023/07/25 15:43:57;;;;;;;;;;;;;;;;;;4964557;28;20349;-71
2023/07/25 15:46:43;;;;;;;;;;;;;;;;;;4962557;28;19922;-75
2023/07/25 15:49:30;;;;;;;;;;;;;;;;;;4964063;28;19972;-72
2023/07/25 15:52:16;;;;;;;;;;;;;;;;;;4962696;28;20456;-72
2023/07/25 15:55:03;;;;;;;;;;;;;;;;;;4963801;28;19929;-72
2023/07/25 15:57:50;;;;;;;;;;;;;;;;;;4966688;28;20659;-72
2023/07/25 16:00:36;;;;;;;;;;;;;;;;;;4964099;28;19922;-72
2023/07/25 16:03:23;;;;;;;;;;;;;;;;;;4965705;28;19926;-72
2023/07/25 16:06:09;;;;;;;;;;;;;;;;;;4963211;28;20298;-72
2023/07/25 16:08:56;;;;;;;;;;;;;;;;;;4953235;28;20390;-72
2023/07/25 16:11:42;;;;;;;;;;;;;;;;;;4963133;28;19922;-71
2023/07/25 16:14:29;;;;;;;;;;;;;;;;;;4945300;28;19922;-71
2023/07/25 16:17:15;;;;;;;;;;;;;;;;;;4953655;28;19914;-71
2023/07/25 16:20:02;;;;;;;;;;;;;;;;;;4956923;28;19922;-71
2023/07/25 16:22:48;;;;;;;;;;;;;;;;;;4963108;28;20026;-72
2023/07/25 16:25:35;;;;;;;;;;;;;;;;;;4962564;28;19919;-73
2023/07/25 16:28:21;;;;;;;;;;;;;;;;;;4966225;28;19934;-73
2023/07/25 16:31:08;;;;;;;;;;;;;;;;;;4962023;28;20289;-72
2023/07/25 16:33:54;;;;;;;;;;;;;;;;;;4962338;28;19926;-72
2023/07/25 16:36:41;;;;;;;;;;;;;;;;;;4965431;28;19933;-71
2023/07/25 16:39:27;;;;;;;;;;;;;;;;;;4966075;28;20009;-72
2023/07/25 16:42:14;;;;;;;;;;;;;;;;;;4960696;28;19922;-71
2023/07/25 16:45:00;;;;;;;;;;;;;;;;;;4969994;28;19922;-72
2023/07/25 16:47:47;;;;;;;;;;;;;;;;;;4965380;28;20353;-71
2023/07/25 16:50:33;;;;;;;;;;;;;;;;;;4964975;28;19927;-71
2023/07/25 16:53:19;;;;;;;;;;;;;;;;;;4968364;28;19922;-72
2023/07/25 16:56:06;;;;;;;;;;;;;;;;;;4964884;28;19918;-72
2023/07/25 16:58:53;;;;;;;;;;;;;;;;;;4949070;28;19937;-73
2023/07/25 17:01:39;;;;;;;;;;;;;;;;;;4961088;28;20359;-72
2023/07/25 17:04:28;;;;;;;;;;;;;;;;;;4963851;28;20383;-71
2023/07/25 17:07:14;;;;;;;;;;;;;;;;;;4962526;28;20502;-72
2023/07/25 17:10:01;;;;;;;;;;;;;;;;;;4963734;28;19932;-71
2023/07/25 17:12:47;;;;;;;;;;;;;;;;;;4961366;28;19929;-72
2023/07/25 17:15:34;;;;;;;;;;;;;;;;;;4957576;28;20258;-72
2023/07/25 17:18:21;;;;;;;;;;;;;;;;;;4956670;28;19928;-72
2023/07/25 17:21:07;;;;;;;;;;;;;;;;;;4950072;28;19928;-71
2023/07/25 17:23:54;;;;;;;;;;;;;;;;;;4963258;28;19925;-71
2023/07/25 17:26:40;;;;;;;;;;;;;;;;;;4950949;28;20295;-72
2023/07/25 17:29:27;;;;;;;;;;;;;;;;;;4946913;28;19930;-72
2023/07/25 17:32:13;;;;;;;;;;;;;;;;;;4953019;28;19918;-72
2023/07/25 17:35:00;;;;;;;;;;;;;;;;;;4966589;28;20897;-71
2023/07/25 17:37:46;;;;;;;;;;;;;;;;;;4968448;28;20561;-72
2023/07/25 17:40:33;;;;;;;;;;;;;;;;;;4956438;28;19922;-73
2023/07/25 17:43:20;;;;;;;;;;;;;;;;;;4954698;28;19926;-73
2023/07/25 17:46:06;;;;;;;;;;;;;;;;;;4935653;28;19918;-71
2023/07/25 17:48:53;;;;;;;;;;;;;;;;;;4935888;28;19927;-72
2023/07/25 17:51:39;;;;;;;;;;;;;;;;;;4951903;28;19946;-72
2023/07/25 17:54:26;;;;;;;;;;;;;;;;;;4951447;28;19938;-71
2023/07/25 17:57:12;;;;;;;;;;;;;;;;;;4953992;28;19952;-71
2023/07/25 17:59:59;;;;;;;;;;;;;;;;;;4968986;28;19934;-72
2023/07/25 18:02:45;;;;;;;;;;;;;;;;;;4961317;28;19925;-71
2023/07/25 18:05:32;;;;;;;;;;;;;;;;;;4966240;28;19926;-71
2023/07/25 18:08:18;;;;;;;;;;;;;;;;;;4942727;28;20340;-76
2023/07/25 18:11:05;;;;;;;;;;;;;;;;;;4968508;28;19933;-71
2023/07/25 18:13:53;;;;;;;;;;;;;;;;;;4964775;28;19921;-72
2023/07/25 18:16:40;;;;;;;;;;;;;;;;;;4946619;28;19923;-72
2023/07/25 18:19:26;;;;;;;;;;;;;;;;;;4964303;28;20065;-71
2023/07/25 18:22:13;;;;;;;;;;;;;;;;;;4946599;28;20656;-72
2023/07/25 18:24:59;;;;;;;;;;;;;;;;;;4942900;28;19919;-71
2023/07/25 18:27:46;;;;;;;;;;;;;;;;;;4949027;28;19933;-71
2023/07/25 18:30:35;;;;;;;;;;;;;;;;;;4966989;28;19926;-71
2023/07/25 18:33:22;;;;;;;;;;;;;;;;;;4960915;28;20380;-71
2023/07/25 18:36:08;;;;;;;;;;;;;;;;;;4938344;28;19914;-72
2023/07/25 18:38:55;;;;;;;;;;;;;;;;;;4935970;28;19922;-71
2023/07/25 18:41:41;;;;;;;;;;;;;;;;;;4954117;28;19933;-71
2023/07/25 18:44:28;;;;;;;;;;;;;;;;;;4963583;28;19922;-72
2023/07/25 18:47:14;;;;;;;;;;;;;;;;;;4961172;28;19922;-71
2023/07/25 18:50:01;;;;;;;;;;;;;;;;;;4956522;28;19929;-71
2023/07/25 18:52:47;;;;;;;;;;;;;;;;;;4961625;28;19930;-72
2023/07/25 18:55:34;;;;;;;;;;;;;;;;;;4958082;28;20347;-72
2023/07/25 18:58:22;;;;;;;;;;;;;;;;;;4968005;28;19930;-71